createdAt,value
2019-01-17T00:01:17.566Z,83.90
2019-01-17T00:04:05.706Z,84.10
2019-01-17T00:06:50.920Z,84.00
2019-01-17T00:09:57.002Z,83.90
2019-01-17T00:12:37.586Z,83.90
2019-01-17T00:15:25.687Z,84.00
2019-01-17T00:18:12.221Z,84.10
2019-01-17T00:21:15.815Z,84.10
2019-01-17T00:24:21.851Z,84.00
2019-01-17T00:27:21.564Z,83.80
2019-01-17T00:30:07.900Z,83.30
2019-01-17T00:32:46.306Z,83.30
2019-01-17T00:35:46.124Z,83.30
2019-01-17T00:38:36.769Z,83.10
2019-01-17T00:41:12.746Z,83.40
2019-01-17T00:43:56.119Z,82.80
2019-01-17T00:46:54.615Z,82.80
2019-01-17T00:49:54.107Z,82.70
2019-01-17T00:52:45.577Z,82.90
2019-01-17T00:55:26.937Z,82.70
2019-01-17T00:58:02.100Z,82.90
2019-01-17T01:00:48.860Z,82.90
2019-01-17T01:03:34.414Z,82.60
2019-01-17T01:06:13.762Z,82.90
2019-01-17T01:09:10.633Z,83.00
2019-01-17T01:11:58.459Z,83.00
2019-01-17T01:14:37.486Z,83.10
2019-01-17T01:17:27.590Z,83.30
2019-01-17T01:20:16.470Z,83.80
2019-01-17T01:23:19.499Z,83.80
2019-01-17T01:25:56.843Z,83.80
2019-01-17T01:28:59.969Z,83.90
2019-01-17T01:31:50.667Z,84.10
2019-01-17T01:34:38.751Z,84.40
2019-01-17T01:37:26.136Z,84.20
2019-01-17T01:40:21.394Z,84.20
2019-01-17T01:43:15.269Z,84.30
2019-01-17T01:46:12.583Z,84.20
2019-01-17T01:49:06.821Z,84.00
2019-01-17T01:52:06.794Z,84.20
2019-01-17T01:54:35.885Z,84.70
2019-01-17T01:57:07.528Z,84.90
2019-01-17T01:59:36.304Z,85.20
2019-01-17T02:02:05.131Z,85.30
2019-01-17T02:04:34.066Z,85.70
2019-01-17T02:07:03.106Z,85.90
2019-01-17T02:09:32.268Z,86.10
2019-01-17T02:12:01.174Z,86.30
2019-01-17T02:14:30.342Z,86.20
2019-01-17T02:16:59.193Z,86.20
2019-01-17T02:19:28.275Z,86.50
2019-01-17T02:21:57.357Z,86.90
2019-01-17T02:24:28.630Z,87.20
2019-01-17T02:26:57.085Z,87.10
2019-01-17T02:29:26.058Z,87.10
2019-01-17T02:31:54.860Z,87.20
2019-01-17T02:34:23.931Z,87.30
2019-01-17T02:36:52.776Z,87.10
2019-01-17T02:39:21.930Z,87.20
2019-01-17T02:41:50.908Z,87.40
2019-01-17T02:44:19.898Z,87.20
2019-01-17T02:46:48.937Z,87.20
2019-01-17T02:49:17.667Z,87.20
2019-01-17T02:51:46.501Z,87.40
2019-01-17T02:54:15.554Z,87.50
2019-01-17T02:56:44.552Z,87.70
2019-01-17T02:59:13.694Z,87.90
2019-01-17T03:01:42.739Z,88.00
2019-01-17T03:04:11.698Z,87.70
2019-01-17T03:06:40.602Z,87.80
2019-01-17T03:09:09.589Z,87.80
2019-01-17T03:11:38.654Z,87.90
2019-01-17T03:14:07.666Z,87.90
2019-01-17T03:16:36.933Z,87.90
2019-01-17T03:19:06.163Z,87.80
2019-01-17T03:21:35.012Z,88.10
2019-01-17T03:24:04.052Z,88.30
2019-01-17T03:26:39.273Z,88.40
2019-01-17T03:29:04.176Z,88.60
2019-01-17T03:31:32.999Z,88.60
2019-01-17T03:34:02.280Z,88.70
2019-01-17T03:36:31.378Z,88.60
2019-01-17T03:39:00.391Z,88.50
2019-01-17T03:41:29.548Z,88.60
2019-01-17T03:43:58.697Z,88.60
2019-01-17T03:46:27.648Z,88.80
2019-01-17T03:48:56.768Z,88.70
2019-01-17T03:51:25.818Z,88.90
2019-01-17T03:53:54.938Z,88.90
2019-01-17T03:56:23.879Z,88.80
2019-01-17T03:58:52.641Z,89.10
2019-01-17T04:01:21.701Z,89.30
2019-01-17T04:03:51.042Z,89.40
2019-01-17T04:06:19.962Z,89.50
2019-01-17T04:08:48.959Z,89.70
2019-01-17T04:11:17.835Z,89.90
2019-01-17T04:13:46.767Z,90.10
2019-01-17T04:16:16.111Z,90.30
2019-01-17T04:18:45.245Z,90.20
2019-01-17T04:21:14.894Z,90.10
2019-01-17T04:23:43.972Z,90.30
2019-01-17T04:26:12.927Z,90.40
2019-01-17T04:28:41.804Z,90.40
2019-01-17T04:31:13.813Z,90.40
2019-01-17T04:33:42.777Z,90.50
2019-01-17T04:36:11.647Z,91.30
2019-01-17T04:38:41.276Z,91.70
2019-01-17T04:41:10.455Z,91.50
2019-01-17T04:43:39.641Z,92.20
2019-01-17T04:46:08.475Z,92.30
2019-01-17T04:48:37.438Z,92.60
2019-01-17T04:51:06.369Z,92.70
2019-01-17T04:53:35.462Z,92.80
2019-01-17T04:56:06.764Z,93.40
2019-01-17T04:58:35.649Z,93.60
2019-01-17T05:01:04.911Z,94.00
2019-01-17T05:03:34.027Z,94.30
2019-01-17T05:06:03.078Z,94.20
2019-01-17T05:08:31.959Z,94.00
2019-01-17T05:11:00.701Z,94.10
2019-01-17T05:13:29.764Z,94.20
2019-01-17T05:15:58.856Z,94.30
2019-01-17T05:18:27.674Z,94.40
2019-01-17T05:20:56.827Z,94.50
2019-01-17T05:23:26.284Z,94.60
2019-01-17T05:25:55.504Z,94.80
2019-01-17T05:28:24.592Z,94.60
2019-01-17T05:30:53.669Z,94.90
2019-01-17T05:33:22.789Z,95.10
2019-01-17T05:35:51.998Z,95.50
2019-01-17T05:38:21.058Z,95.80
2019-01-17T05:40:50.103Z,95.80
2019-01-17T05:43:19.195Z,96.00
2019-01-17T05:45:48.229Z,96.40
2019-01-17T05:48:17.236Z,96.30
2019-01-17T05:50:46.006Z,96.40
2019-01-17T05:53:15.091Z,96.30
2019-01-17T05:55:44.109Z,96.20
2019-01-17T05:58:13.087Z,96.20
2019-01-17T06:00:42.401Z,96.40
2019-01-17T06:03:11.279Z,96.50
2019-01-17T06:05:40.486Z,95.70
2019-01-17T06:08:09.903Z,96.30
2019-01-17T06:10:39.093Z,96.40
2019-01-17T06:13:08.672Z,96.60
2019-01-17T06:15:37.855Z,96.60
2019-01-17T06:18:07.107Z,96.60
2019-01-17T06:20:36.024Z,96.60
2019-01-17T06:23:04.968Z,96.60
2019-01-17T06:25:35.370Z,96.60
2019-01-17T06:28:04.204Z,96.60
2019-01-17T06:30:33.218Z,96.60
2019-01-17T06:33:02.049Z,96.60
2019-01-17T06:35:31.082Z,96.60
2019-01-17T06:38:00.356Z,96.60
2019-01-17T06:40:31.384Z,96.60
2019-01-17T06:43:00.379Z,96.60
2019-01-17T06:45:29.189Z,96.60
2019-01-17T06:47:58.319Z,96.60
2019-01-17T06:50:27.287Z,96.60
2019-01-17T06:52:56.339Z,96.60
2019-01-17T06:55:25.324Z,96.60
2019-01-17T06:57:54.152Z,96.60
2019-01-17T07:00:23.154Z,96.60
2019-01-17T07:02:52.186Z,96.60
2019-01-17T07:05:21.142Z,96.60
2019-01-17T07:07:50.111Z,96.60
2019-01-17T07:10:19.371Z,96.60
2019-01-17T07:12:48.113Z,96.60
2019-01-17T07:15:18.923Z,96.60
2019-01-17T07:17:47.755Z,96.60
2019-01-17T07:20:16.922Z,96.60
2019-01-17T07:22:46.090Z,96.60
2019-01-17T07:25:15.298Z,96.60
2019-01-17T07:27:44.520Z,96.60
2019-01-17T07:30:23.742Z,96.60
2019-01-17T07:32:55.803Z,96.60
2019-01-17T07:35:24.749Z,96.60
2019-01-17T07:37:53.651Z,96.60
2019-01-17T07:40:22.771Z,96.60
2019-01-17T07:42:51.557Z,96.60
2019-01-17T07:45:25.837Z,96.60
2019-01-17T07:47:54.857Z,96.60
2019-01-17T07:50:24.223Z,96.60
2019-01-17T07:52:53.203Z,96.60
2019-01-17T07:55:22.491Z,96.60
2019-01-17T07:57:51.227Z,96.60
2019-01-17T08:00:21.660Z,96.60
2019-01-17T08:02:50.702Z,96.60
2019-01-17T08:05:19.643Z,96.60
2019-01-17T08:07:48.697Z,96.60
2019-01-17T08:10:18.540Z,96.60
2019-01-17T08:12:47.868Z,96.60
2019-01-17T08:15:19.682Z,96.60
2019-01-17T08:17:48.728Z,96.60
2019-01-17T08:20:19.987Z,96.60
2019-01-17T08:22:49.446Z,96.60
2019-01-17T08:25:18.608Z,96.60
2019-01-17T08:27:47.564Z,96.60
2019-01-17T08:30:18.758Z,96.60
2019-01-17T08:32:47.606Z,96.60
2019-01-17T08:35:17.235Z,96.60
2019-01-17T08:37:46.200Z,96.60
2019-01-17T08:40:20.850Z,96.60
2019-01-17T08:42:49.593Z,96.60
2019-01-17T08:45:18.502Z,96.60
2019-01-17T08:47:47.271Z,96.60
2019-01-17T08:50:17.063Z,96.60
2019-01-17T08:52:46.050Z,96.60
2019-01-17T08:55:15.158Z,96.60
2019-01-17T08:57:44.256Z,96.60
2019-01-17T09:00:16.558Z,96.60
2019-01-17T09:02:45.424Z,96.60
2019-01-17T09:05:14.652Z,96.60
2019-01-17T09:07:43.650Z,96.60
2019-01-17T09:10:18.436Z,96.60
2019-01-17T09:12:47.693Z,96.60
2019-01-17T09:15:18.017Z,96.60
2019-01-17T09:17:47.025Z,96.60
2019-01-17T09:20:15.852Z,96.60
2019-01-17T09:22:44.903Z,96.60
2019-01-17T09:25:14.897Z,96.60
2019-01-17T09:27:44.056Z,96.60
2019-01-17T09:30:15.249Z,96.60
2019-01-17T09:32:44.270Z,96.60
2019-01-17T09:35:13.843Z,96.60
2019-01-17T09:37:43.045Z,96.60
2019-01-17T09:40:14.499Z,96.60
2019-01-17T09:42:43.936Z,96.60
2019-01-17T09:45:13.252Z,96.60
2019-01-17T09:47:42.184Z,96.60
2019-01-17T09:50:29.282Z,96.60
2019-01-17T09:52:58.140Z,96.60
2019-01-17T09:55:27.048Z,96.60
2019-01-17T09:57:56.087Z,96.60
2019-01-17T10:00:27.216Z,96.60
2019-01-17T10:02:56.062Z,96.60
2019-01-17T10:05:25.321Z,96.60
2019-01-17T10:07:54.403Z,96.60
2019-01-17T10:10:24.062Z,96.60
2019-01-17T10:12:53.327Z,96.60
2019-01-17T10:15:46.896Z,96.60
2019-01-17T10:18:57.799Z,96.60
2019-01-17T10:22:07.711Z,96.20
2019-01-17T10:25:24.834Z,96.60
2019-01-17T10:28:15.971Z,96.60
2019-01-17T10:31:05.020Z,96.60
2019-01-17T10:33:59.001Z,96.60
2019-01-17T10:36:49.822Z,96.60
2019-01-17T10:39:42.051Z,96.60
2019-01-17T10:42:58.702Z,96.60
2019-01-17T10:45:53.068Z,96.40
2019-01-17T10:49:01.739Z,90.10
2019-01-17T10:51:49.511Z,89.30
2019-01-17T10:54:55.605Z,88.70
2019-01-17T10:58:01.287Z,87.70
2019-01-17T11:01:08.152Z,86.60
2019-01-17T11:04:19.774Z,86.70
2019-01-17T11:06:58.390Z,85.90
2019-01-17T11:09:51.451Z,85.40
2019-01-17T11:13:25.418Z,80.80
2019-01-17T11:16:38.212Z,76.20
2019-01-17T11:20:03.046Z,78.60
2019-01-17T11:22:54.623Z,77.20
2019-01-17T11:25:58.800Z,78.10
2019-01-17T11:28:57.062Z,80.10
2019-01-17T11:31:55.991Z,79.30
2019-01-17T11:35:04.753Z,80.20
2019-01-17T11:38:09.057Z,80.10
2019-01-17T11:40:57.846Z,78.20
2019-01-17T11:44:07.953Z,78.90
2019-01-17T11:47:01.119Z,79.90
2019-01-17T11:50:28.755Z,81.10
2019-01-17T11:53:24.874Z,80.60
2019-01-17T11:56:19.348Z,77.50
2019-01-17T11:59:23.116Z,76.20
2019-01-17T12:02:20.217Z,76.50
2019-01-17T12:04:47.647Z,76.20
2019-01-17T12:07:18.346Z,75.90
2019-01-17T12:09:47.204Z,77.30
2019-01-17T12:12:20.301Z,77.70
2019-01-17T12:14:49.482Z,77.00
2019-01-17T12:17:18.519Z,77.80
2019-01-17T12:19:47.591Z,78.90
2019-01-17T12:22:16.633Z,79.30
2019-01-17T12:24:45.631Z,79.10
2019-01-17T12:27:14.383Z,79.80
2019-01-17T12:29:43.358Z,78.80
2019-01-17T12:32:12.495Z,78.60
2019-01-17T12:34:41.519Z,79.50
2019-01-17T12:37:10.263Z,79.50
2019-01-17T12:39:39.183Z,79.70
2019-01-17T12:42:08.143Z,79.40
2019-01-17T12:44:37.357Z,79.80
2019-01-17T12:47:06.356Z,80.10
2019-01-17T12:49:35.221Z,79.50
2019-01-17T12:52:04.219Z,80.50
2019-01-17T12:54:33.041Z,79.30
2019-01-17T12:57:01.882Z,80.20
2019-01-17T12:59:30.897Z,79.20
2019-01-17T13:01:59.761Z,77.70
2019-01-17T13:04:28.830Z,76.60
2019-01-17T13:06:58.193Z,76.90
2019-01-17T13:09:26.904Z,78.40
2019-01-17T13:11:55.808Z,79.10
2019-01-17T13:14:24.799Z,78.90
2019-01-17T13:16:53.835Z,78.20
2019-01-17T13:19:22.662Z,78.70
2019-01-17T13:21:51.558Z,76.60
2019-01-17T13:24:20.513Z,76.20
2019-01-17T13:26:49.718Z,77.30
2019-01-17T13:29:18.749Z,74.80
2019-01-17T13:31:47.736Z,74.00
2019-01-17T13:34:16.936Z,73.30
2019-01-17T13:36:45.883Z,72.70
2019-01-17T13:39:14.895Z,72.20
2019-01-17T13:41:44.118Z,72.00
2019-01-17T13:44:13.195Z,71.00
2019-01-17T13:46:42.334Z,69.70
2019-01-17T13:49:11.337Z,69.70
2019-01-17T13:51:40.139Z,68.20
2019-01-17T13:54:08.907Z,68.20
2019-01-17T13:56:37.983Z,69.30
2019-01-17T13:59:07.041Z,69.50
2019-01-17T14:01:36.030Z,69.80
2019-01-17T14:04:05.237Z,71.30
2019-01-17T14:06:34.170Z,70.70
2019-01-17T14:09:03.307Z,70.80
2019-01-17T14:11:32.556Z,71.50
2019-01-17T14:14:01.592Z,69.70
2019-01-17T14:16:30.355Z,69.60
2019-01-17T14:18:59.417Z,70.20
2019-01-17T14:21:28.430Z,72.50
2019-01-17T14:23:57.266Z,73.60
2019-01-17T14:26:26.162Z,74.50
2019-01-17T14:28:55.195Z,75.00
2019-01-17T14:31:24.185Z,75.30
2019-01-17T14:33:53.258Z,76.30
2019-01-17T14:36:22.424Z,76.60
2019-01-17T14:38:51.390Z,77.10
2019-01-17T14:41:20.501Z,77.60
2019-01-17T14:43:49.542Z,77.40
2019-01-17T14:46:18.515Z,77.30
2019-01-17T14:48:47.790Z,77.20
2019-01-17T14:51:17.449Z,78.20
2019-01-17T14:53:46.843Z,78.90
2019-01-17T14:56:15.907Z,79.60
2019-01-17T14:58:47.099Z,79.90
2019-01-17T15:01:16.083Z,80.30
2019-01-17T15:03:45.151Z,80.70
2019-01-17T15:06:14.385Z,81.40
2019-01-17T15:08:43.464Z,82.00
2019-01-17T15:11:12.461Z,82.30
2019-01-17T15:13:41.310Z,82.50
2019-01-17T15:16:10.592Z,82.40
2019-01-17T15:18:39.766Z,82.00
2019-01-17T15:21:08.793Z,81.70
2019-01-17T15:23:37.896Z,81.50
2019-01-17T15:26:07.023Z,81.60
2019-01-17T15:28:36.150Z,83.00
2019-01-17T15:31:05.338Z,85.60
2019-01-17T15:33:34.733Z,87.60
2019-01-17T15:36:03.558Z,93.30
2019-01-17T15:38:32.673Z,95.10
2019-01-17T15:41:01.770Z,96.50
2019-01-17T15:43:31.132Z,96.60
2019-01-17T15:46:00.114Z,96.60
2019-01-17T15:48:28.880Z,96.60
2019-01-17T15:50:58.334Z,96.60
2019-01-17T15:53:27.431Z,96.60
2019-01-17T15:55:56.631Z,96.60
2019-01-17T15:58:25.728Z,96.60
2019-01-17T16:00:54.873Z,96.60
2019-01-17T16:03:24.066Z,96.60
2019-01-17T16:05:52.841Z,96.60
2019-01-17T16:08:21.623Z,96.60
2019-01-17T16:10:50.824Z,96.60
2019-01-17T16:13:19.643Z,96.60
2019-01-17T16:15:48.718Z,96.60
2019-01-17T16:18:18.033Z,96.60
2019-01-17T16:20:46.866Z,96.60
2019-01-17T16:23:16.050Z,96.60
2019-01-17T16:25:44.839Z,96.60
2019-01-17T16:28:14.048Z,96.60
2019-01-17T16:30:43.282Z,95.60
2019-01-17T16:33:12.256Z,95.30
2019-01-17T16:35:41.373Z,95.10
2019-01-17T16:38:10.596Z,95.20
2019-01-17T16:40:39.781Z,94.70
2019-01-17T16:43:08.786Z,94.10
2019-01-17T16:45:37.608Z,94.00
2019-01-17T16:48:06.496Z,94.00
2019-01-17T16:50:35.602Z,94.20
2019-01-17T16:53:04.946Z,94.20
2019-01-17T16:55:34.032Z,94.20
2019-01-17T16:58:03.338Z,93.90
2019-01-17T17:00:38.170Z,94.10
2019-01-17T17:03:07.090Z,94.50
2019-01-17T17:05:36.036Z,94.70
2019-01-17T17:08:05.123Z,94.60
2019-01-17T17:10:34.330Z,94.40
2019-01-17T17:13:03.423Z,94.30
2019-01-17T17:15:32.791Z,94.00
2019-01-17T17:18:01.626Z,93.50
2019-01-17T17:20:30.812Z,94.00
2019-01-17T17:22:59.630Z,93.80
2019-01-17T17:25:28.663Z,93.80
2019-01-17T17:27:57.744Z,94.40
2019-01-17T17:30:27.250Z,94.90
2019-01-17T17:32:56.125Z,95.90
2019-01-17T17:35:25.067Z,96.40
2019-01-17T17:37:54.293Z,96.60
2019-01-17T17:40:28.295Z,96.60
2019-01-17T17:42:57.647Z,96.60
2019-01-17T17:45:26.629Z,96.60
2019-01-17T17:47:57.260Z,96.60
2019-01-17T17:50:26.198Z,96.60
2019-01-17T17:52:55.562Z,96.60
2019-01-17T17:55:24.978Z,96.60
2019-01-17T17:57:53.737Z,96.60
2019-01-17T18:00:45.911Z,96.60
2019-01-17T18:03:14.837Z,96.60
2019-01-17T18:05:43.809Z,96.60
2019-01-17T18:08:12.815Z,96.60
2019-01-17T18:10:41.924Z,96.60
2019-01-17T18:13:11.086Z,96.60
2019-01-17T18:15:40.049Z,96.60
2019-01-17T18:18:09.151Z,96.60
2019-01-17T18:20:38.397Z,96.60
2019-01-17T18:23:07.341Z,96.60
2019-01-17T18:25:36.374Z,96.60
2019-01-17T18:28:08.846Z,96.60
2019-01-17T18:30:36.808Z,96.60
2019-01-17T18:33:05.943Z,96.60
2019-01-17T18:35:35.260Z,96.60
2019-01-17T18:38:04.690Z,96.60
2019-01-17T18:40:33.694Z,96.60
2019-01-17T18:43:02.720Z,96.60
2019-01-17T18:45:31.846Z,96.60
2019-01-17T18:48:01.063Z,96.60
2019-01-17T18:50:31.048Z,96.60
2019-01-17T18:52:59.974Z,96.60
2019-01-17T18:55:29.255Z,96.60
2019-01-17T18:57:58.552Z,96.60
2019-01-17T19:00:29.407Z,96.60
2019-01-17T19:02:58.489Z,96.60
2019-01-17T19:05:27.888Z,96.60
2019-01-17T19:07:56.842Z,96.60
2019-01-17T19:10:26.288Z,96.60
2019-01-17T19:12:55.323Z,96.60
2019-01-17T19:15:29.403Z,96.60
2019-01-17T19:17:59.783Z,95.70
2019-01-17T19:20:29.119Z,94.70
2019-01-17T19:22:58.583Z,93.70
2019-01-17T19:25:27.519Z,93.80
2019-01-17T19:27:56.614Z,94.10
2019-01-17T19:30:27.851Z,94.40
2019-01-17T19:32:56.934Z,94.50
2019-01-17T19:35:26.168Z,95.00
2019-01-17T19:37:55.399Z,95.20
2019-01-17T19:40:25.565Z,95.40
2019-01-17T19:42:54.604Z,95.80
2019-01-17T19:45:23.904Z,96.00
2019-01-17T19:47:53.494Z,96.10
2019-01-17T19:50:25.591Z,96.30
2019-01-17T19:52:54.968Z,96.30
2019-01-17T19:55:24.122Z,96.60
2019-01-17T19:57:52.957Z,96.60
2019-01-17T20:00:22.587Z,96.60
2019-01-17T20:02:52.022Z,96.60
2019-01-17T20:05:21.184Z,96.60
2019-01-17T20:07:50.269Z,96.60
2019-01-17T20:10:21.945Z,96.60
2019-01-17T20:12:51.070Z,96.60
2019-01-17T20:15:21.341Z,96.60
2019-01-17T20:17:50.556Z,96.60
2019-01-17T20:20:19.882Z,96.60
2019-01-17T20:22:48.904Z,96.60
2019-01-17T20:25:17.995Z,96.60
2019-01-17T20:27:47.347Z,96.60
2019-01-17T20:30:18.990Z,96.40
2019-01-17T20:32:48.623Z,95.80
2019-01-17T20:35:17.526Z,95.30
2019-01-17T20:37:46.439Z,94.80
2019-01-17T20:40:18.174Z,94.80
2019-01-17T20:42:47.574Z,94.20
2019-01-17T20:45:16.780Z,94.00
2019-01-17T20:47:45.701Z,94.20
2019-01-17T20:50:26.385Z,94.30
2019-01-17T20:52:55.221Z,94.60
2019-01-17T20:55:24.334Z,94.00
2019-01-17T20:57:53.410Z,93.40
2019-01-17T21:00:31.578Z,93.30
2019-01-17T21:03:00.870Z,93.00
2019-01-17T21:05:29.819Z,92.60
2019-01-17T21:07:58.746Z,92.60
2019-01-17T21:10:27.949Z,92.40
2019-01-17T21:12:57.302Z,92.50
2019-01-17T21:15:26.359Z,92.00
2019-01-17T21:17:55.754Z,91.80
2019-01-17T21:20:24.531Z,92.20
2019-01-17T21:22:53.855Z,92.40
2019-01-17T21:25:22.868Z,92.40
2019-01-17T21:27:51.884Z,92.10
2019-01-17T21:30:22.492Z,91.80
2019-01-17T21:32:51.584Z,91.90
2019-01-17T21:35:20.565Z,91.60
2019-01-17T21:37:49.486Z,91.70
2019-01-17T21:40:19.366Z,90.60
2019-01-17T21:42:48.299Z,90.80
2019-01-17T21:45:18.042Z,90.50
2019-01-17T21:47:46.992Z,90.30
2019-01-17T21:50:18.706Z,90.30
2019-01-17T21:52:47.783Z,89.70
2019-01-17T21:55:16.870Z,89.90
2019-01-17T21:57:45.744Z,89.60
2019-01-17T22:00:18.196Z,89.10
2019-01-17T22:02:47.534Z,88.50
2019-01-17T22:05:16.682Z,88.20
2019-01-17T22:07:45.682Z,87.80
2019-01-17T22:10:15.146Z,88.10
2019-01-17T22:12:44.259Z,87.80
2019-01-17T22:15:18.737Z,87.60
2019-01-17T22:17:47.905Z,87.70
2019-01-17T22:20:17.462Z,87.10
2019-01-17T22:22:46.311Z,86.80
2019-01-17T22:25:16.061Z,86.00
2019-01-17T22:27:44.931Z,86.50
2019-01-17T22:30:22.543Z,85.50
2019-01-17T22:32:51.886Z,85.20
2019-01-17T22:35:21.047Z,85.70
2019-01-17T22:37:50.273Z,85.70
2019-01-17T22:40:19.468Z,85.40
2019-01-17T22:42:48.693Z,85.60
2019-01-17T22:45:19.972Z,86.10
2019-01-17T22:47:49.227Z,85.30
2019-01-17T22:50:18.713Z,85.50
2019-01-17T22:52:48.408Z,85.90
2019-01-17T22:55:17.330Z,86.40
2019-01-17T22:57:46.126Z,86.30
2019-01-17T23:00:52.359Z,86.20
2019-01-17T23:03:23.888Z,87.20
2019-01-17T23:05:52.918Z,88.00
2019-01-17T23:08:22.211Z,88.50
2019-01-17T23:10:51.056Z,88.50
2019-01-17T23:13:20.078Z,88.10
2019-01-17T23:15:49.108Z,87.50
2019-01-17T23:18:17.907Z,87.40
2019-01-17T23:20:46.966Z,87.40
2019-01-17T23:23:16.264Z,87.50
2019-01-17T23:25:45.267Z,87.50
2019-01-17T23:28:14.720Z,87.80
2019-01-17T23:30:44.046Z,87.60
2019-01-17T23:33:13.191Z,87.90
2019-01-17T23:35:41.951Z,88.20
2019-01-17T23:38:10.899Z,88.00
2019-01-17T23:40:39.810Z,88.20
2019-01-17T23:43:08.650Z,87.80
2019-01-17T23:45:37.724Z,87.10
2019-01-17T23:48:06.970Z,87.50
2019-01-17T23:50:36.007Z,86.60
2019-01-17T23:53:06.000Z,86.60
2019-01-17T23:55:35.005Z,86.00
2019-01-17T23:58:04.068Z,86.80
